Portada
METAR-TAF:

METAR-TAF

Aeropuertos :

Jark, Irán

latitud: 29-15-34N, longitud: 50-19-24E, altitud: 5 m

Observación

El informe se hizo hace 1 hora y 14 minutos, a las 14:00 UTC
Viento 4 kt del oeste
Temperatura 20°C
Humedad 78%
Presión 1021 hPa
Visibilidad 10 km o más
sin nubes por debajo de 1500 m y sin presencia de cumulonimbus.

METAR: OIBQ 181400Z 27004KT CAVOK 20/16 Q1021

Hora: 18:44 (15:14 UTC)


TAF: falta

Observaciones y pronósticos meteorológicos de más de 4000 aeropuertos (mensajes METAR y TAF).

Los puntos amarillos y rojos representan las estaciones disponibles.

Ponga el ratón en el punto deseado para ver el nombre de la estación.

Haga clic para ver las observaciones y los pronósticos meteorológicos.

Para cambiar el mapa : haga clic en los botones verdes con una cruz de color negro para hacer un zoom, en el botón verde con un guión para alejar o en las flechas verdes para mapas adyacentes.


METAR-TAF: